Time;durP1;ratioP1;P1;durP2;ratioP2;P2;SDS_P1;SDS_P2;PMS_P1;PMS_P2;Temp;Humidity;BMP_temperature;BMP_pressure;BME280_temperature;BME280_humidity;BME280_pressure;Samples;Min_cycle;Max_cycle;Signal;HPM_P1;HPM_P2
2022/06/08 00:01:50;;;;;;;7.25;6.43;;;;;;;-148.88;100.00;75082.63;5036168;28;20033;-77
2022/06/08 00:04:17;;;;;;;7.70;6.40;;;;;;;-148.88;100.00;75086.69;5036454;28;20155;-77
2022/06/08 00:06:43;;;;;;;7.60;6.03;;;;;;;-148.88;100.00;75082.63;5036424;28;20056;-77
2022/06/08 00:09:08;;;;;;;8.52;6.55;;;;;;;-148.88;100.00;75086.69;5036486;28;20033;-77
2022/06/08 00:11:34;;;;;;;9.35;6.85;;;;;;;-148.88;100.00;75092.78;5036609;28;20040;-77
2022/06/08 00:13:59;;;;;;;9.30;6.93;;;;;;;-148.88;100.00;75090.72;5035146;28;20021;-77
2022/06/08 00:16:24;;;;;;;7.93;6.53;;;;;;;-148.88;100.00;75084.66;5036383;28;20147;-77
2022/06/08 00:18:49;;;;;;;8.23;7.15;;;;;;;-148.88;100.00;75082.63;5036839;28;20124;-77
2022/06/08 00:21:16;;;;;;;8.60;7.13;;;;;;;-148.88;100.00;75086.69;5036860;28;20446;-77
2022/06/08 00:23:42;;;;;;;11.15;7.95;;;;;;;-148.88;100.00;75092.78;5035497;28;20509;-77
2022/06/08 00:26:08;;;;;;;10.45;7.95;;;;;;;-148.88;100.00;75088.72;5037228;28;20437;-77
2022/06/08 00:28:33;;;;;;;11.05;8.32;;;;;;;-148.88;100.00;75086.69;5036227;28;20534;-77
2022/06/08 00:30:59;;;;;;;9.55;7.70;;;;;;;-148.88;100.00;75084.66;5036758;28;20045;-77
2022/06/08 00:33:25;;;;;;;10.43;7.85;;;;;;;-148.88;100.00;75086.69;5036518;28;20022;-77
2022/06/08 00:35:50;;;;;;;10.38;8.40;;;;;;;-148.88;100.00;75084.66;5036725;28;20364;-77
2022/06/08 00:38:16;;;;;;;14.27;8.07;;;;;;;-148.88;100.00;75078.56;5036154;28;20025;-77
2022/06/08 00:41:11;;;;;;;11.38;8.75;;;;;;;-148.88;100.00;75082.63;5036972;28;20029;-77
2022/06/08 00:43:37;;;;;;;12.00;8.70;;;;;;;-148.88;100.00;75078.56;5036722;28;20026;-77
2022/06/08 00:46:04;;;;;;;12.65;9.45;;;;;;;-148.88;100.00;75070.44;5036711;28;20493;-77
2022/06/08 00:48:34;;;;;;;13.75;9.52;;;;;;;-148.88;100.00;75062.31;5036385;28;20401;-77
2022/06/08 00:50:59;;;;;;;13.40;10.85;;;;;;;-148.88;100.00;75066.38;5036739;28;20032;-78
2022/06/08 00:53:40;;;;;;;14.18;11.07;;;;;;;-148.88;100.00;75058.25;5035710;28;20021;-78
2022/06/08 00:56:10;;;;;;;16.05;12.07;;;;;;;-148.88;100.00;75064.34;5036599;28;20100;-78
2022/06/08 00:58:37;;;;;;;20.63;14.48;;;;;;;-148.88;100.00;75064.34;5036060;28;20041;-78
2022/06/08 01:01:03;;;;;;;19.70;13.90;;;;;;;-148.88;100.00;75066.38;5051556;28;20027;-77
2022/06/08 01:03:28;;;;;;;17.27;13.30;;;;;;;-148.88;100.00;75070.44;5051143;28;20112;-77
2022/06/08 01:06:04;;;;;;;17.33;13.98;;;;;;;-148.88;100.00;75078.56;5035771;28;20140;-77
2022/06/08 01:08:35;;;;;;;18.33;13.98;;;;;;;-148.88;100.00;75076.53;5035319;28;20517;-77
2022/06/08 01:11:06;;;;;;;19.70;15.00;;;;;;;-148.88;100.00;75082.63;5050844;28;20048;-78
2022/06/08 01:13:34;;;;;;;18.33;13.82;;;;;;;-148.88;100.00;75074.50;5050738;28;20025;-78
2022/06/08 01:16:09;;;;;;;23.88;15.95;;;;;;;-148.88;100.00;75076.53;5033377;28;20025;-77
2022/06/08 01:18:35;;;;;;;18.02;13.88;;;;;;;-148.88;100.00;75078.56;5033202;28;20160;-77
2022/06/08 01:21:21;;;;;;;22.85;15.68;;;;;;;-148.88;100.00;75080.59;5034715;28;20490;-78
2022/06/08 01:24:02;;;;;;;22.60;15.93;;;;;;;-148.88;100.00;75082.63;5019584;28;20045;-77
2022/06/08 01:26:41;;;;;;;22.20;16.20;;;;;;;-148.88;100.00;75086.69;5034739;28;20475;-78
2022/06/08 01:29:21;;;;;;;28.77;18.33;;;;;;;-148.88;100.00;75082.63;5034920;28;20029;-78
2022/06/08 01:31:58;;;;;;;25.00;18.38;;;;;;;-148.88;100.00;75086.69;5035827;28;20044;-78
2022/06/08 01:34:43;;;;;;;24.65;17.90;;;;;;;-148.88;100.00;75086.69;5035142;28;20034;-78
2022/06/08 01:37:35;;;;;;;27.80;18.45;;;;;;;-148.88;100.00;75082.63;5035063;28;20024;-77
2022/06/08 01:40:32;;;;;;;23.65;17.30;;;;;;;-148.88;100.00;75082.63;5035584;28;20486;-78
2022/06/08 01:42:59;;;;;;;26.95;18.83;;;;;;;-148.88;100.00;75084.66;5034939;28;20025;-78
2022/06/08 01:45:51;;;;;;;30.65;19.40;;;;;;;-148.88;100.00;75090.72;5034985;28;20029;-78
2022/06/08 01:48:48;;;;;;;29.60;19.65;;;;;;;-148.88;100.00;75084.66;5034253;28;20025;-78
2022/06/08 01:51:49;;;;;;;28.73;20.48;;;;;;;-148.88;100.00;75074.50;5030013;28;20494;-78
2022/06/08 01:54:33;;;;;;;28.60;19.92;;;;;;;-148.88;100.00;75078.56;5032558;28;20514;-77
2022/06/08 01:57:17;;;;;;;37.58;23.25;;;;;;;-148.88;100.00;75076.53;5032534;28;20112;-77
2022/06/08 02:00:00;;;;;;;37.25;23.48;;;;;;;-148.88;100.00;75078.56;5034190;28;20053;-78
2022/06/08 02:02:31;;;;;;;36.22;23.70;;;;;;;-148.88;100.00;75074.50;5034500;28;20025;-78
2022/06/08 02:05:27;;;;;;;34.00;22.77;;;;;;;-148.88;100.00;75070.44;5049563;28;20038;-77
2022/06/08 02:08:10;;;;;;;36.47;23.50;;;;;;;-148.88;100.00;75062.31;5033747;28;20399;-78
2022/06/08 02:10:45;;;;;;;37.03;24.67;;;;;;;-148.88;100.00;75062.31;5034450;28;20022;-78
2022/06/08 02:13:47;;;;;;;37.53;24.15;;;;;;;-148.88;100.00;75064.34;5034546;28;20032;-78
2022/06/08 02:16:39;;;;;;;43.50;26.00;;;;;;;-148.88;100.00;75058.25;5034453;28;20017;-78
2022/06/08 02:22:37;;;;;;;39.90;24.10;;;;;;;-148.88;100.00;75060.28;5034629;28;20036;-77
2022/06/08 02:25:30;;;;;;;37.42;23.50;;;;;;;-148.88;100.00;75062.31;5034689;28;20053;-78
2022/06/08 02:28:13;;;;;;;35.35;22.48;;;;;;;-148.88;100.00;75058.25;5034000;28;20472;-78
2022/06/08 02:30:47;;;;;;;36.97;22.98;;;;;;;-148.88;100.00;75062.31;5032468;28;20030;-77
2022/06/08 02:36:10;;;;;;;34.00;21.80;;;;;;;-148.88;100.00;75060.28;5035099;28;20394;-78
2022/06/08 02:38:41;;;;;;;34.78;21.13;;;;;;;-148.88;100.00;75054.19;5034369;28;20071;-78
2022/06/08 02:41:10;;;;;;;35.08;22.08;;;;;;;-148.88;100.00;75052.16;5034416;28;20049;-78
2022/06/08 02:43:42;;;;;;;36.80;22.80;;;;;;;-148.88;100.00;75050.13;5033153;28;20025;-77
2022/06/08 02:46:28;;;;;;;34.58;21.95;;;;;;;-148.88;100.00;75046.06;5034673;28;20017;-77
2022/06/08 02:48:53;;;;;;;41.25;25.55;;;;;;;-148.88;100.00;75046.06;5035040;28;20037;-78
2022/06/08 02:51:30;;;;;;;39.92;24.25;;;;;;;-148.88;100.00;75037.94;5034946;28;20030;-78
2022/06/08 02:54:00;;;;;;;35.97;23.25;;;;;;;-148.88;100.00;75033.88;5034298;28;20022;-78
2022/06/08 02:56:31;;;;;;;36.75;24.52;;;;;;;-148.88;100.00;75029.81;5034120;28;20021;-78
2022/06/08 02:59:18;;;;;;;36.53;23.58;;;;;;;-148.88;100.00;75035.91;5032722;28;20387;-78
2022/06/08 03:02:02;;;;;;;39.40;24.35;;;;;;;-148.88;100.00;75033.88;5034524;28;20025;-78
2022/06/08 03:04:36;;;;;;;36.75;23.10;;;;;;;-148.88;100.00;75021.69;5032655;28;20029;-78
2022/06/08 03:07:11;;;;;;;41.78;24.35;;;;;;;-148.88;100.00;75025.75;5031777;28;20029;-78
2022/06/08 03:09:38;;;;;;;34.72;22.35;;;;;;;-148.88;100.00;75023.72;5038114;23;20042;-87
2022/06/08 03:12:14;;;;;;;37.38;22.67;;;;;;;-148.88;100.00;75027.78;4996032;28;20049;-85
2022/06/08 03:14:47;;;;;;;33.20;21.92;;;;;;;-148.88;100.00;75025.75;4996228;28;20096;-85
2022/06/08 03:17:19;;;;;;;30.85;20.77;;;;;;;-148.88;100.00;75023.72;4996288;28;20026;-85
2022/06/08 03:19:44;;;;;;;32.15;21.20;;;;;;;-148.88;100.00;75025.75;4996810;28;20026;-86
2022/06/08 03:22:10;;;;;;;35.63;21.58;;;;;;;-148.88;100.00;75025.75;5014069;28;20026;-87
2022/06/08 03:24:35;;;;;;;35.88;21.88;;;;;;;-148.88;100.00;75027.78;5016684;28;20076;-85
2022/06/08 03:27:05;;;;;;;32.22;21.27;;;;;;;-148.88;100.00;75025.75;5016516;28;20021;-86
2022/06/08 03:29:32;;;;;;;34.88;20.73;;;;;;;-148.88;100.00;75021.69;5016602;28;20026;-86
2022/06/08 03:31:58;;;;;;;35.42;21.13;;;;;;;-148.88;100.00;75019.66;5000073;28;20060;-87
2022/06/08 03:34:23;;;;;;;35.47;21.38;;;;;;;-148.88;100.00;75023.72;5000554;28;20116;-85
2022/06/08 03:36:49;;;;;;;33.30;21.02;;;;;;;-148.88;100.00;75017.63;5016698;28;20018;-86
2022/06/08 03:39:15;;;;;;;33.35;20.30;;;;;;;-148.88;100.00;75017.63;5017505;28;20076;-87
2022/06/08 03:41:44;;;;;;;35.15;21.10;;;;;;;-148.88;100.00;75013.56;5015832;28;20399;-85
2022/06/08 03:44:09;;;;;;;31.73;20.67;;;;;;;-148.88;100.00;75009.50;5015981;28;20046;-85
2022/06/08 03:46:40;;;;;;;34.55;21.23;;;;;;;-148.88;100.00;75005.44;5016495;28;20075;-85
2022/06/08 03:49:08;;;;;;;36.58;21.63;;;;;;;-148.88;100.00;75001.38;5017356;28;20484;-85
2022/06/08 03:51:37;;;;;;;33.00;21.02;;;;;;;-148.88;100.00;74999.34;5016000;28;20064;-85
2022/06/08 03:54:08;;;;;;;36.15;23.13;;;;;;;-148.88;100.00;75005.44;4999470;28;20044;-84
2022/06/08 03:56:37;;;;;;;36.83;23.15;;;;;;;-148.88;100.00;75001.38;4999657;28;20030;-86
2022/06/08 03:59:03;;;;;;;39.22;23.27;;;;;;;-148.88;100.00;75003.41;5016095;28;20076;-85
2022/06/08 04:01:30;;;;;;;47.28;25.13;;;;;;;-148.88;100.00;75005.44;5015873;28;20034;-85
2022/06/08 04:03:56;;;;;;;46.53;25.85;;;;;;;-148.88;100.00;75009.50;4999778;28;20022;-85
2022/06/08 04:06:22;;;;;;;51.50;29.58;;;;;;;-148.88;100.00;75001.38;4999891;28;20026;-86
2022/06/08 04:08:48;;;;;;;51.97;28.40;;;;;;;-148.88;100.00;75001.38;5015999;28;20030;-86
2022/06/08 04:11:16;;;;;;;55.72;28.67;;;;;;;-148.88;100.00;74999.34;5017953;28;20511;-83
2022/06/08 04:13:42;;;;;;;60.17;29.85;;;;;;;-148.88;100.00;74997.31;5000911;28;20036;-86
2022/06/08 04:16:07;;;;;;;67.25;32.10;;;;;;;-148.88;100.00;74993.25;5001088;28;20116;-85
2022/06/08 04:18:33;;;;;;;59.85;31.98;;;;;;;-148.88;100.00;74993.25;4999913;28;20072;-83
2022/06/08 04:21:01;;;;;;;72.18;34.10;;;;;;;-148.88;100.00;74985.13;4999786;28;20026;-84
2022/06/08 04:23:30;;;;;;;73.13;35.95;;;;;;;-148.88;100.00;74989.19;5015588;28;20026;-83
2022/06/08 04:25:56;;;;;;;76.63;35.47;;;;;;;-148.88;100.00;74989.19;5017063;28;20029;-83
2022/06/08 04:28:23;;;;;;;73.75;36.13;;;;;;;-148.88;100.00;74997.31;5016151;28;20030;-84
2022/06/08 04:30:48;;;;;;;75.00;36.55;;;;;;;-148.88;100.00;75001.38;5016981;28;20021;-85
2022/06/08 04:33:14;;;;;;;76.40;36.72;;;;;;;-148.88;100.00;75003.41;5019814;28;20029;-84
2022/06/08 04:35:40;;;;;;;78.72;38.45;;;;;;;-148.88;100.00;75003.41;5040337;28;20060;-84
2022/06/08 04:38:06;;;;;;;82.45;39.20;;;;;;;-148.88;100.00;74995.28;5023492;28;20006;-86
2022/06/08 04:40:32;;;;;;;80.07;39.08;;;;;;;-148.88;100.00;74991.22;5012692;28;20025;-86
2022/06/08 04:43:09;;;;;;;78.00;38.75;;;;;;;-148.88;100.00;74987.16;5027524;28;20132;-85
2022/06/08 04:45:36;;;;;;;82.45;40.20;;;;;;;-148.88;100.00;74997.31;5002531;28;20030;-86
2022/06/08 04:48:05;;;;;;;79.15;39.08;;;;;;;-148.88;100.00;74997.31;5019532;28;20026;-84
2022/06/08 04:50:37;;;;;;;78.32;38.95;;;;;;;-148.88;100.00;74997.31;5000206;28;20121;-86
2022/06/08 04:53:03;;;;;;;75.85;38.85;;;;;;;-148.88;100.00;74989.19;5017834;28;20453;-86
2022/06/08 04:55:29;;;;;;;77.35;39.03;;;;;;;-148.88;100.00;74981.06;5001270;28;20041;-86
2022/06/08 04:57:54;;;;;;;77.55;38.22;;;;;;;-148.88;100.00;74977.00;4998419;28;20021;-84
2022/06/08 05:00:22;;;;;;;78.32;39.47;;;;;;;-148.88;100.00;74972.94;4998829;28;20024;-83
2022/06/08 05:02:51;;;;;;;72.57;36.70;;;;;;;-148.88;100.00;74993.25;4999226;28;20373;-84
2022/06/08 05:05:22;;;;;;;76.53;37.78;;;;;;;-148.88;100.00;74993.25;5000028;28;20026;-85
2022/06/08 05:07:49;;;;;;;74.53;36.63;;;;;;;-148.88;100.00;74987.16;5017605;28;20030;-85
2022/06/08 05:10:18;;;;;;;68.53;33.92;;;;;;;-148.88;100.00;74970.91;5017423;28;20034;-83
2022/06/08 05:12:44;;;;;;;66.60;34.17;;;;;;;-148.88;100.00;74987.16;5001519;28;20030;-83
2022/06/08 05:15:16;;;;;;;66.18;34.03;;;;;;;-148.88;100.00;74974.97;5020322;28;20025;-84
2022/06/08 05:17:42;;;;;;;73.80;35.78;;;;;;;-148.88;100.00;74968.88;5015781;28;20034;-84
2022/06/08 05:20:12;;;;;;;74.43;35.10;;;;;;;-148.88;100.00;74948.56;5018837;28;20108;-85
2022/06/08 05:22:37;;;;;;;73.05;35.05;;;;;;;-148.88;100.00;74948.56;5019589;28;20037;-85
2022/06/08 05:25:09;;;;;;;71.43;34.60;;;;;;;-148.88;100.00;74928.28;5018558;28;20022;-83
2022/06/08 05:27:38;;;;;;;64.28;33.65;;;;;;;-148.88;100.00;74928.28;5002171;28;20392;-84
2022/06/08 05:30:05;;;;;;;66.75;34.67;;;;;;;-148.88;100.00;74930.31;5018255;28;20038;-85
2022/06/08 05:32:31;;;;;;;57.85;31.65;;;;;;;-148.88;100.00;74910.00;5018553;28;20018;-85
2022/06/08 05:34:56;;;;;;;61.92;31.45;;;;;;;-148.88;100.00;74912.03;5017726;28;20440;-85
2022/06/08 05:37:21;;;;;;;58.88;31.23;;;;;;;-148.88;100.00;74907.97;4998463;28;20514;-84
2022/06/08 05:39:47;;;;;;;57.03;32.08;;;;;;;-148.88;100.00;74907.97;5002195;28;20101;-85
2022/06/08 05:42:12;;;;;;;59.63;30.77;;;;;;;-148.88;100.00;74893.75;5019149;28;20029;-84
2022/06/08 05:44:43;;;;;;;54.67;29.95;;;;;;;-148.88;100.00;74885.63;5002168;28;20038;-85
2022/06/08 05:47:09;;;;;;;57.97;30.63;;;;;;;-148.88;100.00;74889.69;5009020;28;20036;-85
2022/06/08 05:49:34;;;;;;;59.55;29.48;;;;;;;-148.88;100.00;74895.78;5038932;28;20034;-87
2022/06/08 05:52:01;;;;;;;56.30;29.50;;;;;;;-148.88;100.00;74887.66;5039274;28;20037;-85
2022/06/08 05:54:27;;;;;;;46.42;26.83;;;;;;;-148.88;100.00;74883.59;5014734;28;20026;-87
2022/06/08 05:56:53;;;;;;;40.47;25.73;;;;;;;-148.88;100.00;74877.50;5026389;28;20102;-86
2022/06/08 05:59:18;;;;;;;43.17;26.10;;;;;;;-148.88;100.00;74869.38;5009265;28;20026;-87
2022/06/08 06:01:44;;;;;;;40.65;25.40;;;;;;;-148.88;100.00;74867.34;5026686;28;20037;-87
2022/06/08 06:04:13;;;;;;;40.85;25.10;;;;;;;-148.88;100.00;74871.41;5026634;28;20033;-86
2022/06/08 06:06:43;;;;;;;37.65;24.85;;;;;;;-148.88;100.00;74869.38;5007827;28;20034;-86
2022/06/08 06:09:09;;;;;;;38.88;23.55;;;;;;;-148.88;100.00;74857.19;5007776;28;20052;-86
2022/06/08 06:11:35;;;;;;;33.50;23.33;;;;;;;-148.88;99.98;74842.97;5023831;28;20476;-85
2022/06/08 06:14:03;;;;;;;35.03;23.70;;;;;;;-148.88;98.59;74836.88;5002217;28;20030;-85
2022/06/08 06:16:29;;;;;;;30.90;21.80;;;;;;;-148.88;98.57;74830.78;4996667;28;20057;-83
2022/06/08 06:19:00;;;;;;;29.27;20.20;;;;;;;-148.88;99.01;74802.38;4996883;28;20497;-84
2022/06/08 06:21:26;;;;;;;26.83;18.73;;;;;;;-148.88;98.60;74790.19;4998439;28;20029;-83
2022/06/08 06:23:55;;;;;;;30.08;19.20;;;;;;;-148.88;96.14;74786.13;5015098;28;20018;-83
2022/06/08 06:26:21;;;;;;;23.77;17.67;;;;;;;-148.88;95.92;74765.81;5019972;28;20388;-85
2022/06/08 06:28:46;;;;;;;23.58;17.23;;;;;;;-148.88;94.37;74761.75;5019225;28;20476;-86
2022/06/08 06:31:22;;;;;;;21.73;17.10;;;;;;;-148.88;94.16;74757.69;5003459;28;20033;-85
2022/06/08 06:33:48;;;;;;;24.15;15.85;;;;;;;-148.88;93.55;74761.75;5001643;28;20025;-85
2022/06/08 06:36:14;;;;;;;19.95;15.43;;;;;;;-148.88;93.24;74753.63;5016591;28;20025;-82
2022/06/08 06:38:40;;;;;;;20.17;15.20;;;;;;;-148.88;92.32;74743.47;5015799;28;20149;-85
2022/06/08 06:41:05;;;;;;;19.65;15.15;;;;;;;-148.88;91.79;74731.28;4999505;28;20053;-83
2022/06/08 06:43:31;;;;;;;18.17;14.68;;;;;;;-148.88;92.68;74735.34;4998551;28;20029;-85
2022/06/08 06:45:57;;;;;;;19.63;14.57;;;;;;;-148.88;91.52;74725.19;4997196;28;20032;-84
2022/06/08 06:48:22;;;;;;;17.17;14.27;;;;;;;-148.88;92.08;74731.28;4996181;28;20033;-83
2022/06/08 06:50:48;;;;;;;18.70;13.23;;;;;;;-148.88;92.75;74729.25;5013200;28;20138;-85
2022/06/08 06:53:16;;;;;;;17.55;13.15;;;;;;;-148.88;93.64;74725.19;4996462;28;20034;-83
2022/06/08 06:55:42;;;;;;;19.75;13.77;;;;;;;-148.88;91.97;74717.06;5013719;28;20032;-84
2022/06/08 06:58:07;;;;;;;17.75;13.95;;;;;;;-148.88;91.92;74692.72;4995033;28;20018;-84
2022/06/08 07:00:33;;;;;;;15.80;12.75;;;;;;;-148.88;91.37;74680.53;5013906;28;20030;-84
2022/06/08 07:02:59;;;;;;;16.33;12.18;;;;;;;-148.88;91.47;74650.06;4996675;28;20030;-85
2022/06/08 07:05:29;;;;;;;16.13;11.32;;;;;;;-148.88;87.70;74652.09;5014381;28;20052;-84
2022/06/08 07:08:00;;;;;;;15.18;10.57;;;;;;;-148.88;86.74;74631.78;4997259;28;20034;-84
2022/06/08 07:10:26;;;;;;;11.93;8.90;;;;;;;-148.88;85.81;74615.53;4997572;28;20018;-84
2022/06/08 07:12:52;;;;;;;11.10;8.82;;;;;;;-148.88;86.84;74607.41;4996464;28;20028;-84
2022/06/08 07:15:23;;;;;;;14.20;9.82;;;;;;;-148.88;85.73;74615.53;4996038;28;20034;-84
2022/06/08 07:17:49;;;;;;;11.82;9.48;;;;;;;-148.88;85.72;74619.59;4997477;28;20022;-85
2022/06/08 07:20:15;;;;;;;12.73;9.40;;;;;;;-148.88;86.09;74617.56;4996872;28;20403;-84
2022/06/08 07:22:41;;;;;;;11.77;8.82;;;;;;;-148.88;82.40;74611.47;4997367;28;20022;-85
2022/06/08 07:25:18;;;;;;;12.30;8.90;;;;;;;-148.88;80.70;74615.53;4996852;28;20116;-85
2022/06/08 07:27:47;;;;;;;10.60;7.57;;;;;;;-148.88;81.27;74603.34;4996900;28;20476;-84
2022/06/08 07:30:18;;;;;;;10.57;8.05;;;;;;;-148.88;80.72;74599.28;5015101;28;20025;-84
2022/06/08 07:32:43;;;;;;;10.38;7.68;;;;;;;-148.88;81.88;74570.88;4996357;28;20029;-85
2022/06/08 07:35:12;;;;;;;10.73;7.55;;;;;;;-148.88;80.48;74566.81;4995780;28;20030;-84
2022/06/08 07:37:37;;;;;;;11.02;8.35;;;;;;;-148.88;80.33;74568.84;4996028;28;20018;-83
2022/06/08 07:40:06;;;;;;;11.98;7.57;;;;;;;-148.88;79.88;74554.63;5012105;28;20065;-83
2022/06/08 07:42:32;;;;;;;10.98;8.05;;;;;;;-148.88;78.71;74544.47;4996268;28;20022;-84
2022/06/08 07:44:57;;;;;;;9.15;6.57;;;;;;;-148.88;78.94;74542.44;4995678;28;20076;-84
2022/06/08 07:47:23;;;;;;;10.35;7.13;;;;;;;-148.88;78.04;74542.44;4995881;28;20583;-84
2022/06/08 07:49:51;;;;;;;7.13;5.95;;;;;;;-148.88;77.34;74558.69;5013038;28;20032;-84
2022/06/08 07:52:27;;;;;;;8.35;6.63;;;;;;;-148.88;78.26;74534.31;4995779;28;20566;-84
2022/06/08 07:54:52;;;;;;;7.55;5.68;;;;;;;-148.88;78.42;74514.00;4995721;28;20049;-84
2022/06/08 07:57:31;;;;;;;6.93;4.85;;;;;;;-148.88;76.55;74495.75;5013200;28;20072;-85
2022/06/08 08:00:06;;;;;;;6.10;4.47;;;;;;;-148.88;74.93;74485.59;4995746;28;20030;-84
2022/06/08 08:02:31;;;;;;;6.30;4.40;;;;;;;-148.88;74.63;74469.34;4995825;28;20037;-84
2022/06/08 08:04:57;;;;;;;5.28;3.55;;;;;;;-148.88;74.66;74467.31;4995463;28;20025;-84
2022/06/08 08:07:22;;;;;;;5.53;3.78;;;;;;;-148.88;73.52;74465.28;4996199;28;20026;-84
2022/06/08 08:09:51;;;;;;;4.88;4.07;;;;;;;-148.88;75.28;74451.06;5015950;28;20036;-85
2022/06/08 08:12:16;;;;;;;4.35;3.47;;;;;;;-148.88;75.43;74434.81;4999158;28;20025;-85
2022/06/08 08:14:42;;;;;;;6.82;3.70;;;;;;;-148.88;74.53;74430.75;4999402;28;20104;-83
2022/06/08 08:17:08;;;;;;;4.35;3.38;;;;;;;-148.88;74.46;74436.84;4999119;28;20018;-85
2022/06/08 08:19:33;;;;;;;3.97;2.42;;;;;;;-148.88;71.75;74451.06;4999123;28;20029;-85
2022/06/08 08:22:02;;;;;;;4.38;2.40;;;;;;;-148.88;70.82;74447.00;4999028;28;20071;-84
2022/06/08 08:24:27;;;;;;;4.13;2.20;;;;;;;-148.88;73.17;74440.91;4999071;28;20486;-86
2022/06/08 08:27:04;;;;;;;3.40;2.38;;;;;;;-148.88;74.72;74410.47;5016438;28;20026;-85
2022/06/08 08:29:35;;;;;;;5.20;2.78;;;;;;;-148.88;73.29;74416.53;4999039;28;20388;-84
2022/06/08 08:32:02;;;;;;;4.57;2.42;;;;;;;-148.88;71.70;74412.47;4999596;28;20049;-84
2022/06/08 08:34:27;;;;;;;4.32;2.00;;;;;;;-148.88;70.83;74414.50;4998600;28;20022;-85
2022/06/08 08:36:53;;;;;;;4.65;2.30;;;;;;;-148.88;73.18;74384.06;5015184;28;20369;-85
2022/06/08 08:39:19;;;;;;;4.85;2.00;;;;;;;-148.88;71.20;74384.06;5014958;28;20022;-84
2022/06/08 08:44:36;;;;;;;4.13;2.33;;;;;;;-148.88;71.43;74367.81;5016674;28;20041;-85
2022/06/08 08:47:14;;;;;;;4.68;2.20;;;;;;;-148.88;71.04;74365.78;5015241;28;20088;-86
2022/06/08 08:50:02;;;;;;;3.78;2.10;;;;;;;-148.88;71.75;74337.34;4998378;28;20088;-85
2022/06/08 08:52:45;;;;;;;3.15;1.98;;;;;;;-148.88;72.66;74276.44;4998213;28;20018;-85
2022/06/08 08:55:15;;;;;;;3.37;2.07;;;;;;;-148.88;69.81;74258.16;4998453;28;20026;-85
2022/06/08 08:57:56;;;;;;;2.83;1.55;;;;;;;-148.88;64.99;74243.97;4998290;28;20061;-85
2022/06/08 09:00:35;;;;;;;3.95;1.70;;;;;;;-148.88;66.73;74211.47;5014417;28;20025;-84
2022/06/08 09:03:17;;;;;;;3.55;2.17;;;;;;;-148.88;65.72;74231.78;4998723;28;20109;-85
2022/06/08 09:05:44;;;;;;;4.00;1.90;;;;;;;-148.88;63.21;74262.22;4998146;28;20028;-85
2022/06/08 09:08:32;;;;;;;2.73;1.70;;;;;;;-148.88;63.62;74270.34;5020262;23;20104;-76
2022/06/08 09:10:59;;;;;;;3.53;1.60;;;;;;;-148.88;62.69;74246.00;5034734;28;20029;-75
2022/06/08 09:13:35;;;;;;;2.83;1.60;;;;;;;-148.88;65.62;74231.78;5034632;28;20057;-75
2022/06/08 09:16:01;;;;;;;4.88;2.50;;;;;;;-148.88;63.67;74213.50;5035002;28;20032;-75
2022/06/08 09:18:32;;;;;;;9.05;2.85;;;;;;;-148.88;63.30;74227.72;5034531;28;20026;-75
2022/06/08 09:21:00;;;;;;;3.72;2.40;;;;;;;-148.88;63.71;74205.38;5033500;28;20394;-75
2022/06/08 09:23:38;;;;;;;3.60;2.58;;;;;;;-148.88;65.39;74168.84;5034523;28;20033;-75
2022/06/08 09:26:07;;;;;;;2.70;2.28;;;;;;;-148.88;64.68;74148.53;5034515;28;20028;-75
2022/06/08 09:28:34;;;;;;;2.42;1.70;;;;;;;-148.88;59.41;74105.88;5034319;28;20120;-75
2022/06/08 09:31:00;;;;;;;3.88;1.95;;;;;;;-148.88;58.78;74091.69;5034285;28;20544;-75
2022/06/08 09:33:35;;;;;;;3.20;2.05;;;;;;;-148.88;61.24;74087.63;5034354;28;20057;-75
2022/06/08 09:36:08;;;;;;;4.13;2.70;;;;;;;-148.88;58.47;74093.72;5034384;28;20025;-75
2022/06/08 09:38:40;;;;;;;3.22;2.40;;;;;;;-148.88;57.43;74073.41;5034319;28;20441;-75
2022/06/08 09:41:26;;;;;;;3.13;2.05;;;;;;;-148.88;60.56;74047.00;5034547;28;20382;-75
2022/06/08 09:44:36;;;;;;;3.58;2.72;;;;;;;-148.88;58.09;74008.44;5034194;28;20077;-75
2022/06/08 09:53:54;;;;;;;2.83;1.50;;;;;;;-148.88;56.26;73925.19;5033396;28;20040;-75
2022/06/08 09:56:54;;;;;;;2.47;1.50;;;;;;;-148.88;55.11;73876.47;5029379;28;20030;-75
2022/06/08 09:59:44;;;;;;;3.03;1.77;;;;;;;-148.88;53.21;73819.63;5034240;28;20030;-75
2022/06/08 10:02:25;;;;;;;4.20;1.70;;;;;;;-148.88;53.43;73807.44;5032571;28;20068;-76
2022/06/08 10:05:03;;;;;;;3.00;1.42;;;;;;;-148.88;49.58;73819.63;5034707;28;20025;-75
2022/06/08 10:07:50;;;;;;;3.03;1.48;;;;;;;-148.88;49.45;73852.09;5033634;28;20017;-76
2022/06/08 10:10:36;;;;;;;2.83;1.70;;;;;;;-148.88;50.67;73874.44;5033428;28;20405;-75
2022/06/08 10:13:13;;;;;;;2.55;1.70;;;;;;;-148.88;52.20;73892.72;5033799;28;20037;-75
2022/06/08 10:15:54;;;;;;;3.70;1.60;;;;;;;-148.88;50.40;73919.09;5033798;28;20124;-75
2022/06/08 10:18:31;;;;;;;3.05;1.27;;;;;;;-148.88;52.77;73908.94;5033643;28;20114;-75
2022/06/08 10:21:20;;;;;;;3.53;1.17;;;;;;;-148.88;51.53;73870.38;5032266;28;20060;-75
2022/06/08 10:24:11;;;;;;;2.08;1.20;;;;;;;-148.88;50.74;73799.31;5033706;28;20030;-75
2022/06/08 10:26:42;;;;;;;1.92;1.10;;;;;;;-148.88;48.37;73750.59;5033655;28;20032;-75
2022/06/08 10:29:16;;;;;;;3.20;1.10;;;;;;;-148.88;46.90;73734.34;5033962;28;20029;-77
2022/06/08 10:31:56;;;;;;;1.52;0.90;;;;;;;-148.88;46.99;73714.03;5031850;28;20050;-76
2022/06/08 10:34:33;;;;;;;2.58;1.15;;;;;;;-148.88;47.48;73722.16;5032043;28;20022;-76
2022/06/08 10:37:14;;;;;;;2.85;1.50;;;;;;;-148.88;46.06;73728.25;5033332;28;20021;-76
2022/06/08 10:39:41;;;;;;;3.28;1.10;;;;;;;-148.88;45.22;73724.19;5033324;28;20036;-76
2022/06/08 10:45:01;;;;;;;2.88;1.30;;;;;;;-148.88;46.22;73614.56;5032982;28;20185;-76
2022/06/08 10:47:30;;;;;;;1.88;0.98;;;;;;;-148.88;44.36;73632.84;5032813;28;20025;-76
2022/06/08 10:50:01;;;;;;;2.78;1.00;;;;;;;-148.88;42.35;73689.69;5033103;28;20025;-75
2022/06/08 10:52:39;;;;;;;1.85;1.05;;;;;;;-148.88;43.57;73626.75;5032905;28;20029;-75
2022/06/08 10:55:14;;;;;;;4.50;1.33;;;;;;;-148.88;43.89;73624.72;5033098;28;20025;-76
2022/06/08 10:57:50;;;;;;;4.28;0.93;;;;;;;-148.88;45.69;73600.34;5033085;28;20025;-75
2022/06/08 11:03:40;;;;;;;1.88;0.90;;;;;;;-148.88;46.03;73614.56;5033055;28;20089;-76
2022/06/08 11:06:10;;;;;;;4.30;1.00;;;;;;;-148.88;45.01;73649.09;5032834;28;20033;-76
2022/06/08 11:08:56;;;;;;;2.55;0.90;;;;;;;-148.88;45.95;73681.56;5032561;28;20083;-76
2022/06/08 11:11:44;;;;;;;2.00;0.95;;;;;;;-148.88;46.59;73766.84;5032853;28;20025;-76
2022/06/08 11:14:48;;;;;;;2.97;1.15;;;;;;;-148.88;46.04;73848.03;5032637;28;20022;-76
2022/06/08 11:17:37;;;;;;;2.38;1.10;;;;;;;-148.88;46.67;73854.13;5031540;28;20026;-76
2022/06/08 11:20:33;;;;;;;3.35;1.17;;;;;;;-148.88;50.10;73894.75;5031066;28;20096;-76
2022/06/08 11:23:05;;;;;;;2.95;1.13;;;;;;;-148.88;51.13;73908.94;5032746;28;20030;-76
2022/06/08 11:25:46;;;;;;;2.53;1.10;;;;;;;-148.88;52.25;73923.16;5032855;28;20021;-76
2022/06/08 11:28:31;;;;;;;2.58;1.02;;;;;;;-148.88;53.31;73935.34;5031264;28;20025;-75
2022/06/08 11:31:08;;;;;;;2.53;1.10;;;;;;;-148.88;52.77;73961.72;5032764;28;20100;-75
2022/06/08 11:33:51;;;;;;;2.45;1.20;;;;;;;-148.88;52.14;73965.78;5032740;28;20092;-75
2022/06/08 11:36:29;;;;;;;3.13;1.38;;;;;;;-148.88;50.77;74004.38;5033059;28;20029;-76
2022/06/08 11:39:16;;;;;;;2.33;1.02;;;;;;;-148.88;50.90;74006.41;5032534;28;20068;-76
2022/06/08 11:41:42;;;;;;;2.88;1.08;;;;;;;-148.88;51.73;74012.50;5032318;28;20087;-75
2022/06/08 11:44:19;;;;;;;4.88;1.10;;;;;;;-148.88;51.56;74014.53;5034472;28;20029;-76
2022/06/08 11:46:53;;;;;;;1.60;1.10;;;;;;;-148.88;53.43;74010.47;5036237;28;21885;-75
2022/06/08 11:49:30;;;;;;;;;;;;;;;-148.88;54.30;73994.22;5036925;28;20030;-76